Time;durP1;ratioP1;P1;durP2;ratioP2;P2;SDS_P1;SDS_P2;PMS_P1;PMS_P2;Temp;Humidity;BMP_temperature;BMP_pressure;BME280_temperature;BME280_humidity;BME280_pressure;Samples;Min_cycle;Max_cycle;Signal;HPM_P1;HPM_P2
2023/10/04 00:00:20;;;;;;;3.47;2.00;;;;;;;14.26;65.43;98335.47;4866139;29;20268;-82
2023/10/04 00:02:53;;;;;;;3.08;1.48;;;;;;;14.16;65.10;98324.84;4873469;29;20220;-81
2023/10/04 00:05:20;;;;;;;2.20;1.67;;;;;;;13.96;66.90;98335.78;4846188;29;20178;-82
2023/10/04 00:07:48;;;;;;;3.22;2.05;;;;;;;14.27;65.35;98331.03;4843135;29;20169;-81
2023/10/04 00:10:15;;;;;;;2.75;1.50;;;;;;;14.14;65.08;98326.91;4857748;29;20189;-82
2023/10/04 00:12:42;;;;;;;2.90;1.75;;;;;;;14.09;64.85;98321.59;4940138;23;20288;-82
2023/10/04 00:15:14;;;;;;;2.25;1.55;;;;;;;14.11;64.61;98341.28;4860859;29;20329;-82
2023/10/04 00:17:41;;;;;;;2.60;1.52;;;;;;;14.08;65.02;98330.47;4873331;29;20158;-82
2023/10/04 00:20:16;;;;;;;2.42;1.45;;;;;;;14.13;65.32;98333.19;4851493;29;20135;-82
2023/10/04 00:22:43;;;;;;;2.35;1.08;;;;;;;13.93;65.12;98331.84;4906038;23;20250;-82
2023/10/04 00:25:11;;;;;;;4.20;1.77;;;;;;;13.95;65.57;98336.81;4840714;29;20253;-82
2023/10/04 00:27:43;;;;;;;2.17;1.42;;;;;;;13.92;66.08;98334.69;5022960;23;20135;-82
2023/10/04 00:38:00;;;;;;;3.17;1.30;;;;;;;13.29;67.55;98322.31;4991984;23;20587;-83
2023/10/04 00:40:28;;;;;;;2.53;1.40;;;;;;;13.78;65.58;98326.34;4809189;29;20191;-84
2023/10/04 00:42:57;;;;;;;3.05;1.50;;;;;;;13.51;67.18;98337.38;4876151;29;20212;-83
2023/10/04 00:45:23;;;;;;;2.10;1.50;;;;;;;13.48;66.44;98330.00;4910966;23;20637;-84
2023/10/04 00:53:08;;;;;;;3.35;2.03;;;;;;;13.92;65.27;98337.31;4850987;29;20147;-83
2023/10/04 00:55:34;;;;;;;3.60;1.85;;;;;;;13.84;65.20;98348.94;4830603;29;20140;-83
2023/10/04 00:58:02;;;;;;;1.83;1.10;;;;;;;13.81;65.04;98342.38;4935348;23;20523;-82
2023/10/04 01:00:27;;;;;;;2.70;1.38;;;;;;;13.54;65.58;98334.31;4868521;29;20364;-82
2023/10/04 01:02:53;;;;;;;2.13;1.30;;;;;;;13.76;64.72;98344.09;4846156;29;20298;-82
2023/10/04 01:05:24;;;;;;;2.53;1.35;;;;;;;13.73;64.93;98341.97;4839118;29;20209;-82
2023/10/04 01:07:49;;;;;;;3.78;1.95;;;;;;;13.58;65.60;98322.34;4860878;28;20259;-82
2023/10/04 01:10:20;;;;;;;4.22;2.08;;;;;;;13.60;65.39;98338.59;4886924;23;20100;-82
2023/10/04 01:12:46;;;;;;;2.70;1.50;;;;;;;13.68;65.62;98353.91;4900696;23;20151;-82
2023/10/04 01:15:31;;;;;;;3.35;1.70;;;;;;;13.59;65.25;98336.19;4839493;29;20181;-82
2023/10/04 01:18:01;;;;;;;2.83;1.60;;;;;;;13.77;64.82;98350.91;4856222;29;20118;-82
2023/10/04 01:20:33;;;;;;;3.17;2.10;;;;;;;13.72;65.44;98345.59;4850154;29;20205;-83
2023/10/04 01:23:06;;;;;;;3.60;1.63;;;;;;;13.68;64.40;98346.06;4856559;29;20200;-82
2023/10/04 01:25:36;;;;;;;2.70;1.50;;;;;;;13.48;65.49;98348.31;4850386;29;20383;-84
2023/10/04 01:28:12;;;;;;;2.60;1.63;;;;;;;13.62;64.92;98354.06;4875310;28;20118;-85
2023/10/04 01:30:41;;;;;;;2.95;1.65;;;;;;;13.45;65.20;98339.13;4967146;23;20319;-83
2023/10/04 01:33:10;;;;;;;2.42;1.38;;;;;;;13.44;64.48;98352.44;4891034;23;20209;-82
2023/10/04 01:35:39;;;;;;;3.53;1.45;;;;;;;13.52;65.68;98354.69;4857771;29;20281;-82
2023/10/04 01:38:06;;;;;;;1.70;1.27;;;;;;;13.53;65.05;98343.19;5061847;23;20296;-82
2023/10/04 01:40:35;;;;;;;2.67;1.40;;;;;;;13.44;64.37;98334.13;4858007;29;20287;-81
2023/10/04 01:43:15;;;;;;;1.80;1.10;;;;;;;13.44;64.80;98345.38;4856975;29;20252;-82
2023/10/04 01:48:27;;;;;;;2.58;1.38;;;;;;;13.20;64.38;98339.41;5700320;23;20287;-82
2023/10/04 01:50:53;;;;;;;2.60;1.20;;;;;;;13.17;65.41;98350.31;4861659;29;20241;-81
2023/10/04 01:55:54;;;;;;;1.83;1.48;;;;;;;13.14;65.68;98340.31;5238321;23;20404;-82
2023/10/04 01:58:23;;;;;;;2.75;1.20;;;;;;;12.93;65.81;98347.75;4816625;29;20216;-81
2023/10/04 02:00:53;;;;;;;1.50;0.82;;;;;;;13.07;64.84;98339.66;4829115;29;20119;-81
2023/10/04 02:03:18;;;;;;;2.50;1.20;;;;;;;13.01;65.32;98345.84;4836785;29;20109;-81
2023/10/04 02:05:45;;;;;;;2.25;1.30;;;;;;;13.04;65.21;98348.78;4811662;29;20163;-85
2023/10/04 02:08:12;;;;;;;2.72;1.25;;;;;;;12.92;66.09;98338.34;4857945;29;20253;-85
2023/10/04 02:10:38;;;;;;;2.08;1.35;;;;;;;12.87;66.25;98340.84;4885188;29;20193;-82
2023/10/04 02:13:08;;;;;;;2.33;1.30;;;;;;;12.83;66.04;98342.31;5095008;23;21355;-82
2023/10/04 02:15:37;;;;;;;2.72;1.27;;;;;;;12.87;65.61;98333.00;4858702;29;20416;-82
2023/10/04 02:18:04;;;;;;;2.13;1.30;;;;;;;12.86;66.31;98335.84;4872942;29;20258;-82
2023/10/04 02:20:32;;;;;;;2.00;1.17;;;;;;;13.09;65.85;98337.59;4855940;29;20166;-82
2023/10/04 02:22:58;;;;;;;2.22;1.10;;;;;;;13.11;64.76;98348.66;4838674;29;20212;-85
2023/10/04 02:25:24;;;;;;;3.85;1.75;;;;;;;12.79;65.72;98317.69;4864846;29;20200;-85
2023/10/04 02:27:52;;;;;;;2.63;1.15;;;;;;;13.00;65.34;98331.16;4851833;29;20192;-85
2023/10/04 02:30:23;;;;;;;1.52;1.23;;;;;;;12.93;64.65;98337.31;4862881;29;20157;-85
2023/10/04 02:32:51;;;;;;;2.97;1.27;;;;;;;12.76;64.35;98320.75;5190692;23;20272;-84
2023/10/04 02:35:43;;;;;;;1.90;1.20;;;;;;;12.79;66.04;98327.34;4884548;29;20211;-84
2023/10/04 02:38:16;;;;;;;2.78;1.20;;;;;;;12.80;65.46;98334.97;4879418;29;20278;-85
2023/10/04 02:40:43;;;;;;;2.08;1.05;;;;;;;12.70;65.85;98316.44;4858132;29;20633;-85
2023/10/04 02:43:09;;;;;;;4.10;1.20;;;;;;;12.84;65.28;98336.06;4858281;29;20139;-84
2023/10/04 02:45:36;;;;;;;4.20;1.33;;;;;;;12.68;64.60;98305.41;4858239;29;20652;-85
2023/10/04 02:48:04;;;;;;;3.42;1.23;;;;;;;12.87;64.45;98335.63;4876668;29;20157;-84
2023/10/04 02:50:29;;;;;;;2.50;1.23;;;;;;;12.73;64.70;98329.03;4868921;29;20156;-85
2023/10/04 02:52:56;;;;;;;2.92;1.30;;;;;;;12.58;65.43;98307.81;4894958;29;20173;-85
2023/10/04 02:55:21;;;;;;;2.83;1.65;;;;;;;12.64;65.55;98333.81;4859289;29;20255;-85
2023/10/04 02:57:51;;;;;;;3.53;1.70;;;;;;;12.70;66.12;98340.75;4866179;29;20652;-85
2023/10/04 03:00:19;;;;;;;2.75;1.20;;;;;;;12.75;64.77;98337.47;5065547;23;20120;-82
2023/10/04 03:02:50;;;;;;;4.28;1.80;;;;;;;12.55;65.08;98316.91;4872657;28;20108;-82
2023/10/04 03:05:19;;;;;;;2.88;1.30;;;;;;;12.76;65.39;98339.03;4967697;23;20787;-83
2023/10/04 03:07:47;;;;;;;1.42;0.95;;;;;;;12.78;64.01;98331.75;5532926;23;20305;-84
2023/10/04 03:10:14;;;;;;;2.03;1.02;;;;;;;12.73;63.31;98344.72;4824651;29;20418;-84
2023/10/04 03:12:41;;;;;;;1.80;0.88;;;;;;;12.54;63.52;98329.19;4854931;29;20215;-84
2023/10/04 03:15:07;;;;;;;2.00;1.10;;;;;;;12.47;63.94;98349.38;4843331;29;20472;-84
2023/10/04 03:17:32;;;;;;;1.35;0.77;;;;;;;12.35;63.99;98338.97;4843482;29;20231;-85
2023/10/04 03:19:58;;;;;;;1.48;0.93;;;;;;;12.25;64.48;98333.50;4874502;29;20584;-84
2023/10/04 03:22:24;;;;;;;2.03;0.82;;;;;;;12.15;64.42;98318.38;4868499;29;20104;-84
2023/10/04 03:24:50;;;;;;;2.10;1.20;;;;;;;12.17;64.89;98329.41;4861435;29;20161;-85
2023/10/04 03:27:15;;;;;;;1.65;0.95;;;;;;;12.11;64.92;98332.09;4875361;29;20086;-84
2023/10/04 03:29:41;;;;;;;1.90;0.95;;;;;;;11.88;65.91;98315.38;5392693;23;20034;-84
2023/10/04 03:34:35;;;;;;;2.75;1.20;;;;;;;11.93;65.29;98320.75;5105215;23;20431;-84
2023/10/04 03:37:08;;;;;;;1.73;1.10;;;;;;;12.05;65.31;98318.16;5090088;23;20188;-84
2023/10/04 03:39:35;;;;;;;4.32;1.33;;;;;;;11.90;65.30;98289.06;5637840;23;20691;-84
2023/10/04 03:42:00;;;;;;;1.27;1.00;;;;;;;11.91;64.68;98301.09;5580621;23;21034;-85
2023/10/04 03:47:01;;;;;;;;;;;;;;;12.31;63.50;98327.38;5772950;23;20121;-82
2023/10/04 04:00:13;;;;;;;2.00;1.00;;;;;;;11.89;64.92;98324.81;5382970;23;20328;-84
2023/10/04 04:02:39;;;;;;;1.92;0.75;;;;;;;11.74;64.23;98322.59;5386194;23;20172;-84
2023/10/04 04:05:09;;;;;;;2.33;1.67;;;;;;;11.68;64.47;98325.31;4870762;29;20205;-84
2023/10/04 04:07:34;;;;;;;1.63;1.05;;;;;;;11.46;66.02;98325.00;4860252;29;20182;-84
2023/10/04 04:10:04;;;;;;;2.08;1.02;;;;;;;11.79;64.50;98340.22;4909143;23;20199;-83
2023/10/04 04:12:30;;;;;;;2.53;1.30;;;;;;;11.52;65.87;98329.34;4860205;29;20201;-85
2023/10/04 04:14:56;;;;;;;2.45;1.15;;;;;;;11.48;66.36;98343.81;4900663;29;20189;-84
2023/10/04 04:17:22;;;;;;;1.92;1.20;;;;;;;11.55;66.43;98329.69;5004823;23;20092;-83
2023/10/04 04:19:49;;;;;;;4.25;1.50;;;;;;;11.77;64.88;98340.44;4870541;28;20639;-83
2023/10/04 04:22:23;;;;;;;1.70;1.17;;;;;;;11.80;64.57;98321.69;4825234;29;20220;-84
2023/10/04 04:24:50;;;;;;;1.98;1.02;;;;;;;11.71;64.24;98328.25;4840507;29;20286;-83
2023/10/04 04:27:20;;;;;;;3.10;1.10;;;;;;;11.73;64.68;98326.22;4858924;28;20169;-84
2023/10/04 04:29:47;;;;;;;2.97;1.10;;;;;;;11.65;65.02;98313.47;4842549;29;20534;-84
2023/10/04 04:32:15;;;;;;;3.53;1.10;;;;;;;11.66;65.31;98330.75;4827389;29;20529;-83
2023/10/04 04:34:42;;;;;;;1.50;1.00;;;;;;;11.57;65.12;98316.44;4825939;29;20173;-83
2023/10/04 04:37:08;;;;;;;2.83;1.15;;;;;;;11.66;64.53;98314.31;4863534;29;20278;-84
2023/10/04 04:39:39;;;;;;;1.85;1.45;;;;;;;11.61;64.49;98313.13;4835568;29;20205;-84
2023/10/04 04:42:05;;;;;;;2.45;1.15;;;;;;;11.67;65.43;98327.13;4805690;29;20200;-83
2023/10/04 04:44:38;;;;;;;1.50;1.10;;;;;;;11.60;65.32;98318.56;4829098;29;20164;-83
2023/10/04 04:47:12;;;;;;;2.33;1.13;;;;;;;11.65;65.39;98334.34;4831146;29;20219;-84
2023/10/04 04:49:37;;;;;;;1.67;1.00;;;;;;;11.49;65.92;98329.78;4823952;29;20208;-84
2023/10/04 04:52:05;;;;;;;2.13;1.20;;;;;;;11.62;65.71;98325.19;4865232;29;20199;-84
2023/10/04 04:54:32;;;;;;;3.22;1.40;;;;;;;11.34;64.37;98302.28;4879988;28;20154;-83
2023/10/04 04:56:58;;;;;;;1.10;0.85;;;;;;;11.24;65.51;98304.59;4855210;28;20290;-83
2023/10/04 04:59:24;;;;;;;1.52;0.95;;;;;;;11.27;64.84;98329.47;4861206;29;20249;-84
2023/10/04 05:01:51;;;;;;;1.90;1.20;;;;;;;11.19;64.63;98320.94;4841734;29;20740;-83
2023/10/04 05:04:18;;;;;;;2.38;1.02;;;;;;;11.34;65.50;98324.94;4851522;29;20196;-83
2023/10/04 05:06:43;;;;;;;1.80;1.15;;;;;;;11.39;65.42;98330.31;4852026;29;20647;-84
2023/10/04 05:09:12;;;;;;;2.38;1.35;;;;;;;11.41;65.12;98339.50;4852999;29;20472;-84
2023/10/04 05:11:38;;;;;;;1.10;0.70;;;;;;;11.43;65.39;98337.47;4840398;29;20224;-83
2023/10/04 05:14:06;;;;;;;3.60;1.30;;;;;;;11.51;65.84;98338.97;4835047;29;20285;-84
2023/10/04 05:16:32;;;;;;;4.35;1.80;;;;;;;11.58;65.83;98349.31;4815132;29;20669;-83
2023/10/04 05:18:58;;;;;;;3.38;1.38;;;;;;;11.61;66.01;98335.81;4837491;29;20186;-84
2023/10/04 05:21:23;;;;;;;4.00;2.00;;;;;;;11.85;66.64;98339.31;4836653;29;20620;-84
2023/10/04 05:23:49;;;;;;;4.80;2.38;;;;;;;11.96;66.45;98341.19;4848730;29;20210;-84
2023/10/04 05:26:14;;;;;;;2.33;1.73;;;;;;;11.98;66.14;98339.13;4852464;29;20169;-84
2023/10/04 05:41:31;;;;;;;3.08;1.83;;;;;;;12.11;66.59;98351.16;4825525;29;20130;-84
2023/10/04 05:43:56;;;;;;;4.57;2.17;;;;;;;12.01;67.31;98324.81;4801142;29;20186;-84
2023/10/04 05:46:21;;;;;;;4.43;2.05;;;;;;;12.03;66.76;98330.63;4825648;29;20232;-84
2023/10/04 05:48:48;;;;;;;6.82;2.10;;;;;;;12.05;66.94;98348.69;4835825;29;20194;-84
2023/10/04 05:51:16;;;;;;;2.30;1.55;;;;;;;12.05;66.42;98359.13;4831188;29;20646;-84
2023/10/04 05:53:41;;;;;;;3.67;1.83;;;;;;;12.02;66.35;98365.59;4832659;29;20249;-85
2023/10/04 05:56:09;;;;;;;3.55;1.92;;;;;;;11.96;66.75;98343.78;4806233;29;20649;-84
2023/10/04 05:58:34;;;;;;;3.45;1.65;;;;;;;12.14;67.18;98355.94;4831003;29;20040;-84
2023/10/04 06:01:01;;;;;;;4.25;1.90;;;;;;;11.93;66.52;98320.75;4819681;29;20297;-84
2023/10/04 06:03:27;;;;;;;3.33;2.00;;;;;;;12.14;67.12;98347.34;4811143;29;20261;-84
2023/10/04 06:05:52;;;;;;;4.93;2.15;;;;;;;12.12;67.11;98360.59;4834181;29;20296;-84
2023/10/04 06:08:18;;;;;;;4.53;1.95;;;;;;;11.97;67.11;98345.38;4824736;29;20253;-84
2023/10/04 06:10:45;;;;;;;3.88;1.80;;;;;;;12.11;66.47;98371.28;4821896;29;20253;-85
2023/10/04 06:13:13;;;;;;;6.32;2.30;;;;;;;12.07;66.95;98373.53;4810985;29;20110;-85
2023/10/04 06:15:39;;;;;;;3.00;2.00;;;;;;;12.12;66.42;98372.88;4852569;29;20190;-85
2023/10/04 06:18:08;;;;;;;3.28;1.75;;;;;;;11.99;67.01;98355.59;4821866;29;20068;-85
2023/10/04 06:20:36;;;;;;;2.05;1.50;;;;;;;12.22;66.85;98390.59;4818852;29;20020;-85
2023/10/04 06:23:06;;;;;;;2.38;1.48;;;;;;;12.32;66.86;98388.22;4814691;29;20217;-85
2023/10/04 06:25:34;;;;;;;6.85;1.90;;;;;;;12.28;66.50;98397.53;4812596;29;20258;-85
2023/10/04 06:28:01;;;;;;;2.30;1.40;;;;;;;12.23;67.02;98377.31;4830413;29;20130;-84
2023/10/04 06:30:28;;;;;;;3.10;2.00;;;;;;;12.37;67.61;98385.72;4834320;29;20198;-84
2023/10/04 06:32:55;;;;;;;3.58;1.73;;;;;;;12.44;66.52;98383.81;4807153;29;20043;-85
2023/10/04 06:35:24;;;;;;;4.03;1.85;;;;;;;12.51;67.24;98387.13;4837140;29;20051;-84
2023/10/04 06:38:12;;;;;;;3.47;2.03;;;;;;;12.77;66.70;98392.91;4817304;29;20043;-86
2023/10/04 06:40:38;;;;;;;3.08;2.00;;;;;;;12.83;67.09;98391.97;4828849;29;20161;-84
2023/10/04 06:43:06;;;;;;;4.15;2.03;;;;;;;12.89;67.26;98391.06;4822155;29;20052;-83
2023/10/04 06:45:32;;;;;;;3.10;2.40;;;;;;;13.02;67.34;98410.97;4852119;29;20366;-85
2023/10/04 06:47:59;;;;;;;3.63;2.08;;;;;;;13.15;66.50;98419.59;4844047;29;20046;-85
2023/10/04 06:50:29;;;;;;;4.05;2.15;;;;;;;13.00;66.85;98391.28;4847916;29;20393;-85
2023/10/04 06:52:58;;;;;;;5.15;2.50;;;;;;;13.23;65.28;98417.41;4826027;29;20035;-84
2023/10/04 06:55:24;;;;;;;3.63;2.03;;;;;;;13.41;66.72;98420.91;4847918;29;20893;-83
2023/10/04 06:57:50;;;;;;;5.43;2.05;;;;;;;13.46;66.15;98410.56;4825626;29;20128;-85
2023/10/04 07:00:20;;;;;;;2.42;1.67;;;;;;;13.65;65.26;98425.03;4832122;29;20171;-84
2023/10/04 07:02:48;;;;;;;4.60;1.90;;;;;;;13.64;65.71;98426.09;4827174;29;20206;-83
2023/10/04 07:05:16;;;;;;;4.45;2.67;;;;;;;13.92;65.56;98426.31;4872990;28;20261;-85
2023/10/04 07:07:43;;;;;;;4.15;2.33;;;;;;;14.03;65.13;98425.47;4820571;29;20208;-84
2023/10/04 07:10:18;;;;;;;5.22;2.92;;;;;;;14.27;65.14;98436.59;4815771;29;20255;-85
2023/10/04 07:12:45;;;;;;;3.75;2.50;;;;;;;14.26;65.03;98432.41;4848954;29;20110;-84
2023/10/04 07:15:14;;;;;;;3.90;2.45;;;;;;;14.36;64.25;98435.19;4848896;29;20700;-86
2023/10/04 07:17:41;;;;;;;3.72;1.95;;;;;;;14.34;64.20;98421.53;4842585;29;20174;-84
2023/10/04 07:20:08;;;;;;;3.75;1.73;;;;;;;14.46;63.57;98425.91;4848314;29;20107;-85
2023/10/04 07:22:37;;;;;;;3.83;1.70;;;;;;;14.69;63.25;98445.94;4813215;29;20248;-84
2023/10/04 07:25:07;;;;;;;2.13;1.88;;;;;;;14.58;63.78;98437.94;4819916;29;20364;-85
2023/10/04 07:27:33;;;;;;;2.92;1.92;;;;;;;14.64;63.71;98454.53;4831402;29;20613;-85
2023/10/04 07:29:58;;;;;;;4.20;2.35;;;;;;;14.52;64.41;98441.47;4817140;29;20244;-86
2023/10/04 07:32:23;;;;;;;3.22;2.20;;;;;;;14.65;64.39;98450.88;4836095;29;20040;-85
2023/10/04 07:34:49;;;;;;;3.97;1.92;;;;;;;14.69;63.78;98451.19;4822504;29;20277;-85
2023/10/04 07:37:14;;;;;;;4.63;2.30;;;;;;;14.65;63.81;98445.63;4835403;29;20063;-86
2023/10/04 07:39:42;;;;;;;3.38;2.13;;;;;;;14.79;64.13;98460.00;4812230;29;20106;-84
2023/10/04 07:42:08;;;;;;;5.28;2.60;;;;;;;14.88;64.16;98470.09;4827954;29;20672;-86
2023/10/04 07:44:33;;;;;;;3.95;2.50;;;;;;;14.91;64.17;98478.25;4836331;29;20272;-86
2023/10/04 07:47:00;;;;;;;4.13;2.60;;;;;;;14.92;64.03;98479.84;4850790;29;20178;-84
2023/10/04 07:49:26;;;;;;;4.63;2.55;;;;;;;14.89;64.58;98477.72;4846501;29;20209;-85
2023/10/04 07:51:52;;;;;;;4.65;2.30;;;;;;;14.90;65.18;98466.19;4812407;29;20343;-85
2023/10/04 07:54:18;;;;;;;5.38;2.97;;;;;;;14.76;64.60;98442.13;4835109;29;20198;-85
2023/10/04 07:56:44;;;;;;;7.55;3.10;;;;;;;14.90;65.69;98470.63;4818276;29;20189;-85
2023/10/04 07:59:10;;;;;;;5.38;2.20;;;;;;;15.12;64.49;98473.31;4830063;29;20245;-85
2023/10/04 08:01:39;;;;;;;3.55;2.58;;;;;;;15.20;64.60;98465.03;4823525;29;20280;-85
2023/10/04 08:04:04;;;;;;;3.13;2.08;;;;;;;15.31;64.11;98471.19;4814429;29;20284;-84
2023/10/04 08:06:30;;;;;;;3.33;2.00;;;;;;;15.30;63.50;98462.53;4821954;29;20274;-86
2023/10/04 08:08:55;;;;;;;5.47;2.58;;;;;;;15.49;63.16;98473.53;4812888;29;20305;-85
2023/10/04 08:11:21;;;;;;;3.42;2.60;;;;;;;15.67;62.89;98474.25;4812630;29;20197;-85
2023/10/04 08:13:46;;;;;;;4.65;2.55;;;;;;;15.85;62.24;98476.59;4809941;29;20334;-84
2023/10/04 08:16:14;;;;;;;4.93;3.10;;;;;;;15.87;63.06;98469.25;4826093;29;20201;-85
2023/10/04 08:18:39;;;;;;;4.80;2.50;;;;;;;16.12;62.63;98472.41;4806489;29;20369;-85
2023/10/04 08:21:06;;;;;;;5.68;2.40;;;;;;;16.15;61.41;98459.56;4839972;29;20033;-84
2023/10/04 08:23:32;;;;;;;5.75;2.85;;;;;;;16.26;61.61;98479.63;4843665;29;20170;-85
2023/10/04 08:25:58;;;;;;;3.90;2.50;;;;;;;16.31;60.10;98478.09;4845851;29;20276;-84
2023/10/04 08:28:23;;;;;;;4.65;3.05;;;;;;;16.34;61.24;98469.72;4836084;29;20122;-85
2023/10/04 08:30:51;;;;;;;5.22;2.70;;;;;;;16.44;60.18;98452.19;4832532;29;20704;-85
2023/10/04 08:33:25;;;;;;;5.53;3.10;;;;;;;16.71;60.21;98468.94;4810467;29;20337;-85
2023/10/04 08:35:50;;;;;;;5.45;3.13;;;;;;;16.90;59.67;98464.13;4838639;29;20102;-86
2023/10/04 08:38:16;;;;;;;5.75;2.95;;;;;;;17.08;58.71;98481.31;4846979;29;20226;-85
2023/10/04 08:40:42;;;;;;;4.97;3.40;;;;;;;17.10;59.59;98476.59;4834371;29;20221;-84
2023/10/04 08:43:08;;;;;;;5.00;3.70;;;;;;;17.10;59.20;98480.03;4834005;29;20677;-84
2023/10/04 08:45:35;;;;;;;6.25;4.18;;;;;;;17.14;59.04;98465.31;4837970;29;20411;-83
2023/10/04 08:48:01;;;;;;;7.15;4.00;;;;;;;17.19;57.97;98464.56;4853759;29;20198;-85
2023/10/04 08:50:32;;;;;;;5.57;3.33;;;;;;;17.17;59.48;98464.00;4838293;29;20391;-85
2023/10/04 08:53:03;;;;;;;5.32;3.55;;;;;;;17.17;58.26;98448.19;4851572;29;20200;-84
2023/10/04 08:55:37;;;;;;;6.93;3.22;;;;;;;17.12;60.25;98458.69;4838317;29;20261;-81
2023/10/04 08:58:03;;;;;;;6.80;2.90;;;;;;;16.96;59.31;98453.34;4839415;29;20630;-85
2023/10/04 09:00:29;;;;;;;6.07;3.65;;;;;;;17.27;59.02;98448.25;4828311;29;20035;-84
2023/10/04 09:02:56;;;;;;;5.40;3.10;;;;;;;17.14;58.80;98438.22;4866054;29;20703;-84
2023/10/04 09:05:23;;;;;;;6.88;3.05;;;;;;;17.30;59.35;98447.75;4826639;29;20242;-85
2023/10/04 09:07:51;;;;;;;7.82;3.97;;;;;;;17.13;60.43;98450.56;4827060;29;20189;-84
2023/10/04 09:10:18;;;;;;;4.93;3.75;;;;;;;17.05;61.22;98453.69;4802220;29;20291;-84
2023/10/04 09:12:44;;;;;;;6.53;4.10;;;;;;;17.29;59.74;98466.41;4795834;29;20249;-84
2023/10/04 09:15:13;;;;;;;6.15;3.22;;;;;;;17.30;60.03;98457.50;4792919;29;20417;-84
2023/10/04 09:17:55;;;;;;;4.30;3.22;;;;;;;17.39;59.42;98450.69;4834631;29;20648;-83
2023/10/04 09:20:24;;;;;;;7.20;3.58;;;;;;;17.64;59.54;98454.47;4819882;29;20246;-84
2023/10/04 09:22:50;;;;;;;6.13;3.50;;;;;;;17.69;58.04;98452.63;4815765;29;20272;-85
2023/10/04 09:25:16;;;;;;;5.18;3.50;;;;;;;17.82;57.84;98455.81;4800226;29;20321;-84
2023/10/04 09:27:53;;;;;;;4.95;3.28;;;;;;;18.09;57.65;98468.84;4800058;29;20183;-84
2023/10/04 09:30:23;;;;;;;7.80;3.95;;;;;;;18.03;57.60;98460.13;4815052;29;20113;-85
2023/10/04 09:32:51;;;;;;;6.93;3.40;;;;;;;18.03;57.22;98449.59;4822895;29;20272;-85
2023/10/04 09:35:18;;;;;;;3.70;3.25;;;;;;;18.09;58.47;98443.25;4827934;29;20763;-84
2023/10/04 09:37:48;;;;;;;4.80;3.47;;;;;;;18.32;57.00;98457.00;4813016;29;20270;-84
2023/10/04 09:40:17;;;;;;;7.43;3.20;;;;;;;18.42;57.15;98448.28;4813447;29;20205;-86
2023/10/04 09:42:52;;;;;;;5.70;3.25;;;;;;;18.82;58.54;98454.59;4787858;29;20179;-83
2023/10/04 09:45:21;;;;;;;9.90;4.40;;;;;;;18.83;57.17;98459.66;4830421;29;20640;-83
2023/10/04 09:47:53;;;;;;;6.68;3.35;;;;;;;18.94;56.42;98462.28;4829847;29;20193;-83
2023/10/04 09:50:24;;;;;;;5.70;3.33;;;;;;;18.86;55.75;98461.72;4811178;29;20109;-83
2023/10/04 09:52:50;;;;;;;4.95;3.00;;;;;;;18.77;55.42;98452.75;4815180;29;20225;-82
2023/10/04 09:55:15;;;;;;;5.65;3.20;;;;;;;18.88;55.64;98454.38;4833665;29;20450;-83
2023/10/04 09:57:44;;;;;;;6.72;3.42;;;;;;;19.25;55.09;98460.34;4811393;29;20776;-83
2023/10/04 10:00:22;;;;;;;5.38;3.22;;;;;;;19.55;54.07;98458.63;4799771;29;20237;-83
2023/10/04 10:02:53;;;;;;;4.70;2.97;;;;;;;19.71;53.63;98473.38;4832503;29;20249;-82
2023/10/04 10:05:28;;;;;;;6.57;4.32;;;;;;;19.83;52.17;98457.22;4835845;29;20381;-83
2023/10/04 10:07:57;;;;;;;4.20;2.83;;;;;;;19.79;53.70;98464.09;4832835;29;20622;-83
2023/10/04 10:10:24;;;;;;;5.68;2.95;;;;;;;19.96;52.05;98453.97;4823606;29;20524;-85
2023/10/04 10:12:50;;;;;;;3.58;2.30;;;;;;;19.80;52.71;98447.19;4846533;29;20594;-83
2023/10/04 10:15:18;;;;;;;5.32;2.53;;;;;;;19.80;51.95;98455.09;4846483;29;20126;-83
2023/10/04 10:17:46;;;;;;;3.55;2.40;;;;;;;19.49;52.77;98454.44;4820644;29;20183;-83
2023/10/04 10:20:12;;;;;;;3.55;2.38;;;;;;;19.48;53.22;98452.84;4824789;29;20257;-84
2023/10/04 10:22:58;;;;;;;4.65;2.53;;;;;;;19.24;54.06;98443.72;4827326;29;20110;-84
2023/10/04 10:25:25;;;;;;;5.55;2.67;;;;;;;19.21;56.13;98461.91;4807967;29;20307;-83
2023/10/04 10:28:23;;;;;;;5.93;2.13;;;;;;;19.73;53.68;98441.38;4835069;29;20648;-84
2023/10/04 10:30:58;;;;;;;5.82;2.60;;;;;;;20.21;53.42;98449.56;4826708;29;20533;-83
2023/10/04 10:33:25;;;;;;;4.35;1.98;;;;;;;20.54;52.12;98449.81;4819388;29;20201;-86
2023/10/04 10:35:51;;;;;;;3.15;1.70;;;;;;;20.85;50.32;98442.41;4800155;29;20217;-84
2023/10/04 10:38:30;;;;;;;4.47;2.25;;;;;;;21.32;49.35;98455.97;4836625;29;20371;-84
2023/10/04 10:40:55;;;;;;;6.68;2.08;;;;;;;21.17;47.73;98453.50;4809141;29;20549;-83
2023/10/04 10:43:21;;;;;;;4.65;2.45;;;;;;;20.81;49.65;98452.00;4818311;29;20221;-85
2023/10/04 10:45:46;;;;;;;3.50;2.00;;;;;;;20.73;48.99;98457.88;4805133;29;20209;-83
2023/10/04 10:48:12;;;;;;;3.97;2.00;;;;;;;20.40;49.49;98450.47;4839948;29;20205;-84
2023/10/04 10:50:40;;;;;;;4.65;1.60;;;;;;;20.29;48.49;98459.56;4813517;29;20249;-83
2023/10/04 10:53:09;;;;;;;2.78;1.90;;;;;;;20.05;48.20;98456.81;4808679;29;20470;-83
2023/10/04 10:55:34;;;;;;;3.38;2.15;;;;;;;19.75;48.90;98463.06;4823710;29;20301;-84
2023/10/04 10:58:00;;;;;;;4.72;1.90;;;;;;;19.57;49.11;98453.84;4803298;29;20116;-86
2023/10/04 11:00:31;;;;;;;2.97;1.77;;;;;;;19.54;51.39;98463.13;4820456;29;20100;-83
2023/10/04 11:02:57;;;;;;;4.00;1.90;;;;;;;19.57;49.19;98452.03;4852462;29;20721;-85
2023/10/04 11:05:22;;;;;;;5.32;2.10;;;;;;;19.69;49.57;98456.19;4819373;29;20158;-85
2023/10/04 11:07:49;;;;;;;5.55;2.10;;;;;;;19.49;49.42;98439.38;4834759;29;20187;-82
2023/10/04 11:10:16;;;;;;;5.22;2.28;;;;;;;19.32;49.89;98431.00;4838202;29;20222;-84
2023/10/04 11:12:46;;;;;;;8.25;2.60;;;;;;;19.31;51.22;98440.75;4829530;29;20024;-82
2023/10/04 11:15:12;;;;;;;4.97;2.05;;;;;;;19.36;49.64;98440.75;4805198;29;20032;-84
2023/10/04 11:17:39;;;;;;;3.35;2.40;;;;;;;19.98;49.31;98440.44;4832424;29;20080;-86
2023/10/04 11:20:09;;;;;;;4.72;2.53;;;;;;;20.71;49.09;98421.09;4845495;29;20257;-86
2023/10/04 11:22:39;;;;;;;5.50;2.00;;;;;;;21.73;46.48;98431.63;4844781;29;20292;-86
2023/10/04 11:25:06;;;;;;;3.20;2.05;;;;;;;22.41;43.90;98419.75;4839296;29;20106;-86
2023/10/04 11:27:33;;;;;;;5.07;2.40;;;;;;;23.09;41.59;98417.47;4860011;29;20489;-84
2023/10/04 11:29:59;;;;;;;5.40;2.47;;;;;;;23.45;40.94;98418.63;4848304;29;20180;-85
2023/10/04 11:32:27;;;;;;;4.15;2.63;;;;;;;23.89;40.95;98396.66;4875382;29;20650;-84
2023/10/04 11:34:52;;;;;;;5.43;2.50;;;;;;;24.26;39.56;98394.69;4880197;29;20029;-84
2023/10/04 11:37:17;;;;;;;4.63;2.30;;;;;;;24.01;40.28;98408.63;4871783;29;20055;-84
2023/10/04 11:39:44;;;;;;;4.63;2.67;;;;;;;24.03;38.75;98406.47;4831654;29;20101;-84
2023/10/04 11:42:17;;;;;;;5.25;2.35;;;;;;;23.55;39.75;98402.47;4849252;29;20115;-84
2023/10/04 11:44:43;;;;;;;5.60;2.60;;;;;;;22.72;40.96;98395.31;4865589;29;20142;-86
2023/10/04 11:47:09;;;;;;;4.43;2.63;;;;;;;22.22;42.10;98409.13;4853958;29;20119;-83
2023/10/04 11:49:35;;;;;;;4.68;2.40;;;;;;;21.75;43.29;98410.13;4848442;29;20040;-85
2023/10/04 11:52:03;;;;;;;4.68;2.42;;;;;;;21.44;45.64;98403.34;4879328;29;20024;-85
2023/10/04 11:54:39;;;;;;;5.40;2.65;;;;;;;21.98;44.43;98376.63;4884735;29;20039;-84
2023/10/04 11:57:05;;;;;;;4.97;2.50;;;;;;;22.35;44.35;98367.81;4864626;29;20181;-86
2023/10/04 11:59:32;;;;;;;3.88;2.03;;;;;;;22.50;44.14;98363.31;4844591;29;20300;-84
2023/10/04 12:01:57;;;;;;;4.45;2.17;;;;;;;22.50;42.39;98356.16;4866311;29;20380;-84
2023/10/04 12:04:22;;;;;;;4.95;2.25;;;;;;;22.10;43.61;98371.66;4876144;29;20294;-84
2023/10/04 12:07:03;;;;;;;4.50;2.17;;;;;;;21.92;43.35;98369.81;4872982;29;20063;-84
2023/10/04 12:09:33;;;;;;;3.97;2.40;;;;;;;21.65;44.39;98366.00;4871264;29;20246;-87
2023/10/04 12:11:58;;;;;;;4.22;2.40;;;;;;;21.46;44.07;98371.28;4875050;29;20150;-85
2023/10/04 12:14:24;;;;;;;4.53;2.13;;;;;;;21.01;45.05;98337.16;4860216;29;20035;-84
2023/10/04 12:16:50;;;;;;;5.40;2.58;;;;;;;20.94;46.19;98352.59;4860667;29;20339;-85
2023/10/04 12:19:16;;;;;;;5.85;2.30;;;;;;;21.09;45.13;98333.06;4873556;29;20218;-87
2023/10/04 12:21:43;;;;;;;4.97;2.50;;;;;;;21.51;44.46;98348.16;4856189;29;20097;-86
2023/10/04 12:24:09;;;;;;;4.78;2.05;;;;;;;21.47;44.09;98346.34;4862317;29;20426;-88